sensor_id;sensor_type;location;lat;lon;timestamp;temperature;humidity
70336;SHT31;57756;47.408;18.940;2023-07-20T00:01:10;23.54;77.21
70336;SHT31;57756;47.408;18.940;2023-07-20T00:03:36;23.52;77.02
70336;SHT31;57756;47.408;18.940;2023-07-20T00:06:01;23.49;76.88
70336;SHT31;57756;47.408;18.940;2023-07-20T00:08:30;23.44;77.19
70336;SHT31;57756;47.408;18.940;2023-07-20T00:10:55;23.39;77.32
70336;SHT31;57756;47.408;18.940;2023-07-20T00:13:21;23.41;77.58
70336;SHT31;57756;47.408;18.940;2023-07-20T00:15:47;23.41;77.52
70336;SHT31;57756;47.408;18.940;2023-07-20T00:18:12;23.38;77.33
70336;SHT31;57756;47.408;18.940;2023-07-20T00:20:38;23.38;77.59
70336;SHT31;57756;47.408;18.940;2023-07-20T00:23:04;23.37;77.25
70336;SHT31;57756;47.408;18.940;2023-07-20T00:25:30;23.38;77.53
70336;SHT31;57756;47.408;18.940;2023-07-20T00:27:55;23.34;77.55
70336;SHT31;57756;47.408;18.940;2023-07-20T00:30:21;23.35;77.42
70336;SHT31;57756;47.408;18.940;2023-07-20T00:32:46;23.34;77.71
70336;SHT31;57756;47.408;18.940;2023-07-20T00:35:12;23.35;77.71
70336;SHT31;57756;47.408;18.940;2023-07-20T00:37:38;23.37;77.65
70336;SHT31;57756;47.408;18.940;2023-07-20T00:40:05;23.44;77.46
70336;SHT31;57756;47.408;18.940;2023-07-20T00:42:32;23.41;77.43
70336;SHT31;57756;47.408;18.940;2023-07-20T00:44:58;23.38;77.67
70336;SHT31;57756;47.408;18.940;2023-07-20T00:47:24;23.41;77.53
70336;SHT31;57756;47.408;18.940;2023-07-20T00:49:50;23.37;77.75
70336;SHT31;57756;47.408;18.940;2023-07-20T00:52:16;23.34;77.93
70336;SHT31;57756;47.408;18.940;2023-07-20T00:54:43;23.37;77.97
70336;SHT31;57756;47.408;18.940;2023-07-20T00:57:09;23.32;78.15
70336;SHT31;57756;47.408;18.940;2023-07-20T00:59:35;23.32;78.06
70336;SHT31;57756;47.408;18.940;2023-07-20T01:02:01;23.32;78.27
70336;SHT31;57756;47.408;18.940;2023-07-20T01:04:27;23.35;78.11
70336;SHT31;57756;47.408;18.940;2023-07-20T01:09:50;23.35;78.35
70336;SHT31;57756;47.408;18.940;2023-07-20T01:12:33;23.38;78.01
70336;SHT31;57756;47.408;18.940;2023-07-20T01:15:00;23.42;77.77
70336;SHT31;57756;47.408;18.940;2023-07-20T01:17:26;23.39;77.77
70336;SHT31;57756;47.408;18.940;2023-07-20T01:19:52;23.39;77.87
70336;SHT31;57756;47.408;18.940;2023-07-20T01:25:07;23.37;78.24
70336;SHT31;57756;47.408;18.940;2023-07-20T01:31:26;23.22;78.66
70336;SHT31;57756;47.408;18.940;2023-07-20T01:33:55;23.22;78.90
70336;SHT31;57756;47.408;18.940;2023-07-20T01:36:26;23.22;79.09
70336;SHT31;57756;47.408;18.940;2023-07-20T01:38:53;23.21;79.28
70336;SHT31;57756;47.408;18.940;2023-07-20T01:41:20;23.19;79.31
70336;SHT31;57756;47.408;18.940;2023-07-20T01:43:46;23.15;79.40
70336;SHT31;57756;47.408;18.940;2023-07-20T01:46:11;23.15;79.25
70336;SHT31;57756;47.408;18.940;2023-07-20T01:48:37;23.14;79.09
70336;SHT31;57756;47.408;18.940;2023-07-20T01:51:02;23.14;79.89
70336;SHT31;57756;47.408;18.940;2023-07-20T01:53:28;23.10;78.73
70336;SHT31;57756;47.408;18.940;2023-07-20T01:55:53;23.07;79.04
70336;SHT31;57756;47.408;18.940;2023-07-20T01:58:20;23.08;78.44
70336;SHT31;57756;47.408;18.940;2023-07-20T02:00:45;23.11;78.38
70336;SHT31;57756;47.408;18.940;2023-07-20T02:03:11;23.14;77.65
70336;SHT31;57756;47.408;18.940;2023-07-20T02:05:41;23.12;77.68
70336;SHT31;57756;47.408;18.940;2023-07-20T02:08:07;23.15;77.39
70336;SHT31;57756;47.408;18.940;2023-07-20T02:10:33;23.18;77.58
70336;SHT31;57756;47.408;18.940;2023-07-20T02:12:58;23.22;77.30
70336;SHT31;57756;47.408;18.940;2023-07-20T02:15:23;23.21;77.83
70336;SHT31;57756;47.408;18.940;2023-07-20T02:17:49;23.17;77.47
70336;SHT31;57756;47.408;18.940;2023-07-20T02:20:15;23.12;77.54
70336;SHT31;57756;47.408;18.940;2023-07-20T02:22:40;23.11;77.27
70336;SHT31;57756;47.408;18.940;2023-07-20T02:25:07;23.11;76.96
70336;SHT31;57756;47.408;18.940;2023-07-20T02:27:33;23.14;76.63
70336;SHT31;57756;47.408;18.940;2023-07-20T02:29:59;23.10;77.22
70336;SHT31;57756;47.408;18.940;2023-07-20T02:32:25;23.08;76.94
70336;SHT31;57756;47.408;18.940;2023-07-20T02:34:50;23.10;77.23
70336;SHT31;57756;47.408;18.940;2023-07-20T02:37:16;23.11;76.78
70336;SHT31;57756;47.408;18.940;2023-07-20T02:39:42;23.15;77.04
70336;SHT31;57756;47.408;18.940;2023-07-20T02:42:07;23.07;76.98
70336;SHT31;57756;47.408;18.940;2023-07-20T02:44:33;23.07;76.34
70336;SHT31;57756;47.408;18.940;2023-07-20T02:46:58;23.11;76.48
70336;SHT31;57756;47.408;18.940;2023-07-20T02:49:24;23.11;76.28
70336;SHT31;57756;47.408;18.940;2023-07-20T02:51:49;23.14;76.70
70336;SHT31;57756;47.408;18.940;2023-07-20T02:54:15;23.14;76.81
70336;SHT31;57756;47.408;18.940;2023-07-20T02:56:40;23.07;76.73
70336;SHT31;57756;47.408;18.940;2023-07-20T02:59:06;23.08;76.84
70336;SHT31;57756;47.408;18.940;2023-07-20T03:01:31;23.07;76.75
70336;SHT31;57756;47.408;18.940;2023-07-20T03:03:57;23.03;77.09
70336;SHT31;57756;47.408;18.940;2023-07-20T03:06:23;23.01;77.49
70336;SHT31;57756;47.408;18.940;2023-07-20T03:08:48;22.98;77.48
70336;SHT31;57756;47.408;18.940;2023-07-20T03:11:19;22.96;77.83
70336;SHT31;57756;47.408;18.940;2023-07-20T03:13:45;22.87;77.86
70336;SHT31;57756;47.408;18.940;2023-07-20T03:16:11;22.84;77.75
70336;SHT31;57756;47.408;18.940;2023-07-20T03:18:38;22.79;78.03
70336;SHT31;57756;47.408;18.940;2023-07-20T03:21:04;22.74;77.96
70336;SHT31;57756;47.408;18.940;2023-07-20T03:23:30;22.80;77.82
70336;SHT31;57756;47.408;18.940;2023-07-20T03:25:55;22.70;78.34
70336;SHT31;57756;47.408;18.940;2023-07-20T03:28:21;22.63;78.13
70336;SHT31;57756;47.408;18.940;2023-07-20T03:30:46;22.66;77.59
70336;SHT31;57756;47.408;18.940;2023-07-20T03:33:12;22.59;77.68
70336;SHT31;57756;47.408;18.940;2023-07-20T03:35:37;22.60;77.06
70336;SHT31;57756;47.408;18.940;2023-07-20T03:38:03;22.66;76.45
70336;SHT31;57756;47.408;18.940;2023-07-20T03:40:29;22.67;76.01
70336;SHT31;57756;47.408;18.940;2023-07-20T03:42:55;22.70;76.54
70336;SHT31;57756;47.408;18.940;2023-07-20T03:45:20;22.69;76.53
70336;SHT31;57756;47.408;18.940;2023-07-20T03:47:49;22.70;76.42
70336;SHT31;57756;47.408;18.940;2023-07-20T03:50:14;22.67;76.84
70336;SHT31;57756;47.408;18.940;2023-07-20T03:52:40;22.64;76.82
70336;SHT31;57756;47.408;18.940;2023-07-20T03:55:06;22.67;76.97
70336;SHT31;57756;47.408;18.940;2023-07-20T03:57:32;22.66;77.36
70336;SHT31;57756;47.408;18.940;2023-07-20T03:59:58;22.67;77.01
70336;SHT31;57756;47.408;18.940;2023-07-20T04:02:24;22.69;76.98
70336;SHT31;57756;47.408;18.940;2023-07-20T04:04:50;22.69;76.97
70336;SHT31;57756;47.408;18.940;2023-07-20T04:07:16;22.64;77.08
70336;SHT31;57756;47.408;18.940;2023-07-20T04:09:41;22.73;76.30
70336;SHT31;57756;47.408;18.940;2023-07-20T04:12:07;22.76;76.24
70336;SHT31;57756;47.408;18.940;2023-07-20T04:14:33;22.73;75.65
70336;SHT31;57756;47.408;18.940;2023-07-20T04:16:58;22.83;74.97
70336;SHT31;57756;47.408;18.940;2023-07-20T04:19:25;22.86;74.24
70336;SHT31;57756;47.408;18.940;2023-07-20T04:21:51;22.83;74.06
70336;SHT31;57756;47.408;18.940;2023-07-20T04:24:16;22.89;74.71
70336;SHT31;57756;47.408;18.940;2023-07-20T04:26:42;22.86;74.50
70336;SHT31;57756;47.408;18.940;2023-07-20T04:29:08;22.94;74.54
70336;SHT31;57756;47.408;18.940;2023-07-20T04:31:33;23.01;74.52
70336;SHT31;57756;47.408;18.940;2023-07-20T04:33:59;23.07;74.44
70336;SHT31;57756;47.408;18.940;2023-07-20T04:36:25;23.17;73.24
70336;SHT31;57756;47.408;18.940;2023-07-20T04:38:50;23.29;73.01
70336;SHT31;57756;47.408;18.940;2023-07-20T04:41:15;23.44;72.62
70336;SHT31;57756;47.408;18.940;2023-07-20T04:43:42;23.61;72.10
70336;SHT31;57756;47.408;18.940;2023-07-20T04:46:11;23.70;71.10
70336;SHT31;57756;47.408;18.940;2023-07-20T04:48:36;23.79;70.87
70336;SHT31;57756;47.408;18.940;2023-07-20T04:51:02;23.99;70.75
70336;SHT31;57756;47.408;18.940;2023-07-20T04:53:28;24.10;70.70
70336;SHT31;57756;47.408;18.940;2023-07-20T04:55:54;24.10;69.82
70336;SHT31;57756;47.408;18.940;2023-07-20T04:58:20;24.18;69.33
70336;SHT31;57756;47.408;18.940;2023-07-20T05:00:47;24.25;69.35
70336;SHT31;57756;47.408;18.940;2023-07-20T05:03:13;24.28;68.71
70336;SHT31;57756;47.408;18.940;2023-07-20T05:05:38;24.42;68.43
70336;SHT31;57756;47.408;18.940;2023-07-20T05:08:04;24.52;67.97
70336;SHT31;57756;47.408;18.940;2023-07-20T05:10:30;24.65;67.28
70336;SHT31;57756;47.408;18.940;2023-07-20T05:12:55;24.59;67.85
70336;SHT31;57756;47.408;18.940;2023-07-20T05:15:21;24.68;67.69
70336;SHT31;57756;47.408;18.940;2023-07-20T05:17:46;24.71;67.42
70336;SHT31;57756;47.408;18.940;2023-07-20T05:20:14;24.85;68.21
70336;SHT31;57756;47.408;18.940;2023-07-20T05:22:40;24.89;67.14
70336;SHT31;57756;47.408;18.940;2023-07-20T05:25:09;25.03;67.41
70336;SHT31;57756;47.408;18.940;2023-07-20T05:27:37;25.03;66.71
70336;SHT31;57756;47.408;18.940;2023-07-20T05:30:03;25.15;66.87
70336;SHT31;57756;47.408;18.940;2023-07-20T05:32:29;25.33;66.47
70336;SHT31;57756;47.408;18.940;2023-07-20T05:34:55;25.30;66.28
70336;SHT31;57756;47.408;18.940;2023-07-20T05:37:20;25.38;66.32
70336;SHT31;57756;47.408;18.940;2023-07-20T05:39:46;25.45;66.09
70336;SHT31;57756;47.408;18.940;2023-07-20T05:42:12;25.64;65.81
70336;SHT31;57756;47.408;18.940;2023-07-20T05:44:37;25.75;65.37
70336;SHT31;57756;47.408;18.940;2023-07-20T05:47:03;25.92;65.33
70336;SHT31;57756;47.408;18.940;2023-07-20T05:49:29;26.02;64.31
70336;SHT31;57756;47.408;18.940;2023-07-20T05:51:55;26.16;64.24
70336;SHT31;57756;47.408;18.940;2023-07-20T05:54:21;26.23;63.89
70336;SHT31;57756;47.408;18.940;2023-07-20T05:56:47;26.46;63.90
70336;SHT31;57756;47.408;18.940;2023-07-20T05:59:12;26.61;63.28
70336;SHT31;57756;47.408;18.940;2023-07-20T06:01:38;26.74;62.80
70336;SHT31;57756;47.408;18.940;2023-07-20T06:04:04;26.58;63.23
70336;SHT31;57756;47.408;18.940;2023-07-20T06:06:29;26.87;63.09
70336;SHT31;57756;47.408;18.940;2023-07-20T06:08:55;27.25;62.28
70336;SHT31;57756;47.408;18.940;2023-07-20T06:11:20;27.40;61.76
70336;SHT31;57756;47.408;18.940;2023-07-20T06:13:46;27.45;61.42
70336;SHT31;57756;47.408;18.940;2023-07-20T06:16:11;27.54;60.67
70336;SHT31;57756;47.408;18.940;2023-07-20T06:18:37;27.47;60.95
70336;SHT31;57756;47.408;18.940;2023-07-20T06:21:02;27.61;60.89
70336;SHT31;57756;47.408;18.940;2023-07-20T06:23:28;27.97;60.56
70336;SHT31;57756;47.408;18.940;2023-07-20T06:25:53;28.26;60.56
70336;SHT31;57756;47.408;18.940;2023-07-20T06:28:19;27.97;60.26
70336;SHT31;57756;47.408;18.940;2023-07-20T06:30:44;27.70;61.09
70336;SHT31;57756;47.408;18.940;2023-07-20T06:33:10;27.60;61.18
70336;SHT31;57756;47.408;18.940;2023-07-20T06:35:35;27.77;61.47
70336;SHT31;57756;47.408;18.940;2023-07-20T06:38:02;27.79;61.49
70336;SHT31;57756;47.408;18.940;2023-07-20T06:40:29;27.67;61.72
70336;SHT31;57756;47.408;18.940;2023-07-20T06:42:55;27.80;60.60
70336;SHT31;57756;47.408;18.940;2023-07-20T06:45:21;28.00;59.91
70336;SHT31;57756;47.408;18.940;2023-07-20T06:47:46;28.45;59.53
70336;SHT31;57756;47.408;18.940;2023-07-20T06:50:12;28.70;59.02
70336;SHT31;57756;47.408;18.940;2023-07-20T06:52:38;28.86;58.12
70336;SHT31;57756;47.408;18.940;2023-07-20T06:55:05;29.07;57.69
70336;SHT31;57756;47.408;18.940;2023-07-20T06:57:32;29.17;57.35
70336;SHT31;57756;47.408;18.940;2023-07-20T06:59:57;29.57;56.67
70336;SHT31;57756;47.408;18.940;2023-07-20T07:02:23;29.76;56.14
70336;SHT31;57756;47.408;18.940;2023-07-20T07:04:48;30.25;55.84
70336;SHT31;57756;47.408;18.940;2023-07-20T07:07:14;30.45;54.25
70336;SHT31;57756;47.408;18.940;2023-07-20T07:09:40;30.47;54.54
70336;SHT31;57756;47.408;18.940;2023-07-20T07:12:06;30.43;53.35
70336;SHT31;57756;47.408;18.940;2023-07-20T07:14:31;30.93;53.92
70336;SHT31;57756;47.408;18.940;2023-07-20T07:16:57;30.93;51.90
70336;SHT31;57756;47.408;18.940;2023-07-20T07:19:22;31.02;52.71
70336;SHT31;57756;47.408;18.940;2023-07-20T07:21:48;31.22;52.00
70336;SHT31;57756;47.408;18.940;2023-07-20T07:24:13;30.69;51.37
70336;SHT31;57756;47.408;18.940;2023-07-20T07:26:39;31.03;51.58
70336;SHT31;57756;47.408;18.940;2023-07-20T07:29:05;31.29;51.30
70336;SHT31;57756;47.408;18.940;2023-07-20T07:31:30;31.06;51.15
70336;SHT31;57756;47.408;18.940;2023-07-20T07:33:56;30.93;50.70
70336;SHT31;57756;47.408;18.940;2023-07-20T07:36:22;31.34;51.18
70336;SHT31;57756;47.408;18.940;2023-07-20T07:38:49;31.17;50.76
70336;SHT31;57756;47.408;18.940;2023-07-20T07:41:16;31.38;52.05
70336;SHT31;57756;47.408;18.940;2023-07-20T07:43:42;31.33;50.41
70336;SHT31;57756;47.408;18.940;2023-07-20T07:46:07;31.19;50.58
70336;SHT31;57756;47.408;18.940;2023-07-20T07:48:33;31.53;50.16
70336;SHT31;57756;47.408;18.940;2023-07-20T07:50:58;31.86;49.83
70336;SHT31;57756;47.408;18.940;2023-07-20T07:53:24;31.75;49.58
70336;SHT31;57756;47.408;18.940;2023-07-20T07:55:51;31.73;50.26
70336;SHT31;57756;47.408;18.940;2023-07-20T07:58:17;32.37;49.53
70336;SHT31;57756;47.408;18.940;2023-07-20T08:00:42;32.81;48.69
70336;SHT31;57756;47.408;18.940;2023-07-20T08:03:09;32.73;48.65
70336;SHT31;57756;47.408;18.940;2023-07-20T08:05:35;33.08;48.16
70336;SHT31;57756;47.408;18.940;2023-07-20T08:08:02;33.31;47.98
70336;SHT31;57756;47.408;18.940;2023-07-20T08:10:29;33.66;47.27
70336;SHT31;57756;47.408;18.940;2023-07-20T08:12:54;33.74;46.90
70336;SHT31;57756;47.408;18.940;2023-07-20T08:15:20;33.77;47.50
70336;SHT31;57756;47.408;18.940;2023-07-20T08:17:45;33.76;46.55
70336;SHT31;57756;47.408;18.940;2023-07-20T08:20:13;33.69;47.02
70336;SHT31;57756;47.408;18.940;2023-07-20T08:22:39;33.93;47.13
70336;SHT31;57756;47.408;18.940;2023-07-20T08:25:06;34.16;46.59
70336;SHT31;57756;47.408;18.940;2023-07-20T08:27:31;34.61;46.19
70336;SHT31;57756;47.408;18.940;2023-07-20T08:29:57;34.34;47.78
70336;SHT31;57756;47.408;18.940;2023-07-20T08:32:22;34.37;46.39
70336;SHT31;57756;47.408;18.940;2023-07-20T08:34:48;34.18;45.40
70336;SHT31;57756;47.408;18.940;2023-07-20T08:37:14;34.74;45.53
70336;SHT31;57756;47.408;18.940;2023-07-20T08:39:39;34.66;45.66
70336;SHT31;57756;47.408;18.940;2023-07-20T08:42:05;34.78;45.32
70336;SHT31;57756;47.408;18.940;2023-07-20T08:44:35;34.59;45.60
70336;SHT31;57756;47.408;18.940;2023-07-20T08:47:02;34.91;45.44
70336;SHT31;57756;47.408;18.940;2023-07-20T08:49:34;34.21;44.75
70336;SHT31;57756;47.408;18.940;2023-07-20T08:51:59;32.67;46.02
70336;SHT31;57756;47.408;18.940;2023-07-20T08:54:29;32.06;46.97
70336;SHT31;57756;47.408;18.940;2023-07-20T08:56:58;31.37;48.38
70336;SHT31;57756;47.408;18.940;2023-07-20T08:59:25;31.15;49.00
70336;SHT31;57756;47.408;18.940;2023-07-20T09:01:52;30.67;50.41
70336;SHT31;57756;47.408;18.940;2023-07-20T09:04:19;30.38;50.75
70336;SHT31;57756;47.408;18.940;2023-07-20T09:06:44;31.19;50.42
70336;SHT31;57756;47.408;18.940;2023-07-20T09:09:10;31.48;49.93
70336;SHT31;57756;47.408;18.940;2023-07-20T09:11:36;30.88;50.96
70336;SHT31;57756;47.408;18.940;2023-07-20T09:14:09;30.65;50.36
70336;SHT31;57756;47.408;18.940;2023-07-20T09:16:53;31.82;49.29
70336;SHT31;57756;47.408;18.940;2023-07-20T09:19:19;31.80;48.71
70336;SHT31;57756;47.408;18.940;2023-07-20T09:21:46;31.85;47.43
70336;SHT31;57756;47.408;18.940;2023-07-20T09:24:13;32.13;47.58
70336;SHT31;57756;47.408;18.940;2023-07-20T09:26:43;32.66;46.87
70336;SHT31;57756;47.408;18.940;2023-07-20T09:29:09;32.88;45.39
70336;SHT31;57756;47.408;18.940;2023-07-20T09:31:35;32.19;46.67
70336;SHT31;57756;47.408;18.940;2023-07-20T09:34:01;31.80;46.87
70336;SHT31;57756;47.408;18.940;2023-07-20T09:36:27;32.15;47.65
70336;SHT31;57756;47.408;18.940;2023-07-20T09:38:53;32.01;47.21
70336;SHT31;57756;47.408;18.940;2023-07-20T09:41:21;32.09;49.11
70336;SHT31;57756;47.408;18.940;2023-07-20T09:43:47;32.43;47.18
70336;SHT31;57756;47.408;18.940;2023-07-20T09:46:13;33.45;46.91
70336;SHT31;57756;47.408;18.940;2023-07-20T09:48:39;33.68;46.80
70336;SHT31;57756;47.408;18.940;2023-07-20T09:51:05;33.00;46.74
70336;SHT31;57756;47.408;18.940;2023-07-20T09:53:33;32.29;46.86
70336;SHT31;57756;47.408;18.940;2023-07-20T09:55:59;32.70;46.91
70336;SHT31;57756;47.408;18.940;2023-07-20T09:58:26;32.12;47.04
70336;SHT31;57756;47.408;18.940;2023-07-20T10:00:52;31.84;47.71
70336;SHT31;57756;47.408;18.940;2023-07-20T10:03:21;31.91;47.92
70336;SHT31;57756;47.408;18.940;2023-07-20T10:05:58;33.08;47.79
70336;SHT31;57756;47.408;18.940;2023-07-20T10:08:25;33.70;45.86
70336;SHT31;57756;47.408;18.940;2023-07-20T10:10:51;34.48;45.09
70336;SHT31;57756;47.408;18.940;2023-07-20T10:13:21;34.82;44.22
70336;SHT31;57756;47.408;18.940;2023-07-20T10:16:02;35.06;44.61
70336;SHT31;57756;47.408;18.940;2023-07-20T10:18:31;35.33;44.73
70336;SHT31;57756;47.408;18.940;2023-07-20T10:20:59;35.73;44.02
70336;SHT31;57756;47.408;18.940;2023-07-20T10:23:28;36.69;42.78
70336;SHT31;57756;47.408;18.940;2023-07-20T10:25:54;36.91;43.05
70336;SHT31;57756;47.408;18.940;2023-07-20T10:28:21;36.59;41.38
70336;SHT31;57756;47.408;18.940;2023-07-20T10:30:48;36.40;42.62
70336;SHT31;57756;47.408;18.940;2023-07-20T10:33:16;36.37;42.14
70336;SHT31;57756;47.408;18.940;2023-07-20T10:35:53;36.25;42.58
70336;SHT31;57756;47.408;18.940;2023-07-20T10:38:19;35.98;42.90
70336;SHT31;57756;47.408;18.940;2023-07-20T10:40:54;35.03;43.65
70336;SHT31;57756;47.408;18.940;2023-07-20T10:43:20;34.89;44.48
70336;SHT31;57756;47.408;18.940;2023-07-20T10:45:51;33.94;46.02
70336;SHT31;57756;47.408;18.940;2023-07-20T10:48:24;34.27;45.80
70336;SHT31;57756;47.408;18.940;2023-07-20T10:53:35;34.54;46.31
70336;SHT31;57756;47.408;18.940;2023-07-20T10:56:15;34.69;45.58
70336;SHT31;57756;47.408;18.940;2023-07-20T10:58:40;35.49;43.95
70336;SHT31;57756;47.408;18.940;2023-07-20T11:01:07;35.65;45.16
70336;SHT31;57756;47.408;18.940;2023-07-20T11:03:34;34.55;44.72
70336;SHT31;57756;47.408;18.940;2023-07-20T11:08:48;34.00;45.10
70336;SHT31;57756;47.408;18.940;2023-07-20T11:14:00;34.11;44.42
70336;SHT31;57756;47.408;18.940;2023-07-20T11:16:45;35.30;43.11
70336;SHT31;57756;47.408;18.940;2023-07-20T11:21:45;35.70;43.04
70336;SHT31;57756;47.408;18.940;2023-07-20T11:24:11;34.85;43.12
70336;SHT31;57756;47.408;18.940;2023-07-20T11:26:46;34.29;43.56
70336;SHT31;57756;47.408;18.940;2023-07-20T11:29:12;34.20;43.89
70336;SHT31;57756;47.408;18.940;2023-07-20T11:31:39;35.12;43.52
70336;SHT31;57756;47.408;18.940;2023-07-20T11:34:05;35.36;41.48
70336;SHT31;57756;47.408;18.940;2023-07-20T11:36:31;35.64;41.58
70336;SHT31;57756;47.408;18.940;2023-07-20T11:38:58;36.57;42.85
70336;SHT31;57756;47.408;18.940;2023-07-20T11:41:24;36.79;40.89
70336;SHT31;57756;47.408;18.940;2023-07-20T11:43:51;37.00;40.56
70336;SHT31;57756;47.408;18.940;2023-07-20T11:46:16;36.62;39.11
70336;SHT31;57756;47.408;18.940;2023-07-20T11:48:42;36.87;39.15
70336;SHT31;57756;47.408;18.940;2023-07-20T11:51:14;36.71;39.90
70336;SHT31;57756;47.408;18.940;2023-07-20T11:53:40;36.80;40.88
70336;SHT31;57756;47.408;18.940;2023-07-20T11:56:06;37.36;41.27
70336;SHT31;57756;47.408;18.940;2023-07-20T11:58:31;37.18;40.54
70336;SHT31;57756;47.408;18.940;2023-07-20T12:00:57;37.51;39.76
70336;SHT31;57756;47.408;18.940;2023-07-20T12:03:22;37.52;41.28
70336;SHT31;57756;47.408;18.940;2023-07-20T12:05:48;37.69;40.99
70336;SHT31;57756;47.408;18.940;2023-07-20T12:08:15;37.51;42.08
70336;SHT31;57756;47.408;18.940;2023-07-20T12:10:41;37.68;40.02
70336;SHT31;57756;47.408;18.940;2023-07-20T12:13:10;37.34;39.35
70336;SHT31;57756;47.408;18.940;2023-07-20T12:15:36;37.58;40.18
70336;SHT31;57756;47.408;18.940;2023-07-20T12:18:02;36.97;40.01
70336;SHT31;57756;47.408;18.940;2023-07-20T12:20:36;37.42;40.25
70336;SHT31;57756;47.408;18.940;2023-07-20T12:23:12;37.18;40.41
70336;SHT31;57756;47.408;18.940;2023-07-20T12:25:39;37.43;39.58
70336;SHT31;57756;47.408;18.940;2023-07-20T12:28:10;36.86;38.53
70336;SHT31;57756;47.408;18.940;2023-07-20T12:30:40;37.07;39.61
70336;SHT31;57756;47.408;18.940;2023-07-20T12:33:05;36.52;39.85
70336;SHT31;57756;47.408;18.940;2023-07-20T12:35:32;36.39;39.80
70336;SHT31;57756;47.408;18.940;2023-07-20T12:37:58;35.96;40.87
70336;SHT31;57756;47.408;18.940;2023-07-20T12:40:24;36.22;41.15
70336;SHT31;57756;47.408;18.940;2023-07-20T12:42:49;35.70;41.05
70336;SHT31;57756;47.408;18.940;2023-07-20T12:45:15;35.29;40.80
70336;SHT31;57756;47.408;18.940;2023-07-20T12:47:41;35.33;42.16
70336;SHT31;57756;47.408;18.940;2023-07-20T12:50:08;35.89;42.13
70336;SHT31;57756;47.408;18.940;2023-07-20T12:52:37;35.20;41.23
70336;SHT31;57756;47.408;18.940;2023-07-20T12:55:04;35.60;41.15
70336;SHT31;57756;47.408;18.940;2023-07-20T12:57:30;35.71;40.64
70336;SHT31;57756;47.408;18.940;2023-07-20T12:59:55;35.71;42.23
70336;SHT31;57756;47.408;18.940;2023-07-20T13:02:21;35.64;41.38
70336;SHT31;57756;47.408;18.940;2023-07-20T13:04:46;35.30;40.09
70336;SHT31;57756;47.408;18.940;2023-07-20T13:07:12;35.34;40.32
70336;SHT31;57756;47.408;18.940;2023-07-20T13:09:37;35.33;40.62
70336;SHT31;57756;47.408;18.940;2023-07-20T13:12:03;35.13;40.44
70336;SHT31;57756;47.408;18.940;2023-07-20T13:14:29;35.31;40.49
70336;SHT31;57756;47.408;18.940;2023-07-20T13:16:55;34.91;39.75
70336;SHT31;57756;47.408;18.940;2023-07-20T13:19:21;35.03;39.28
70336;SHT31;57756;47.408;18.940;2023-07-20T13:21:47;34.88;39.78
70336;SHT31;57756;47.408;18.940;2023-07-20T13:24:12;34.45;39.49
70336;SHT31;57756;47.408;18.940;2023-07-20T13:26:38;34.81;41.12
70336;SHT31;57756;47.408;18.940;2023-07-20T13:29:03;34.71;39.84
70336;SHT31;57756;47.408;18.940;2023-07-20T13:31:29;34.89;41.00
70336;SHT31;57756;47.408;18.940;2023-07-20T13:33:54;34.58;40.45
70336;SHT31;57756;47.408;18.940;2023-07-20T13:36:23;34.38;40.55
70336;SHT31;57756;47.408;18.940;2023-07-20T13:38:48;34.33;40.45
70336;SHT31;57756;47.408;18.940;2023-07-20T13:41:14;34.40;41.01
70336;SHT31;57756;47.408;18.940;2023-07-20T13:43:41;33.85;41.10
70336;SHT31;57756;47.408;18.940;2023-07-20T13:46:07;33.68;41.85
70336;SHT31;57756;47.408;18.940;2023-07-20T13:48:32;33.46;41.95
70336;SHT31;57756;47.408;18.940;2023-07-20T13:50:58;33.36;42.52
70336;SHT31;57756;47.408;18.940;2023-07-20T13:53:23;33.10;42.29
70336;SHT31;57756;47.408;18.940;2023-07-20T13:55:49;32.97;41.77
70336;SHT31;57756;47.408;18.940;2023-07-20T13:58:14;32.43;41.44
70336;SHT31;57756;47.408;18.940;2023-07-20T14:00:40;32.28;42.85
70336;SHT31;57756;47.408;18.940;2023-07-20T14:03:05;32.44;43.11
70336;SHT31;57756;47.408;18.940;2023-07-20T14:05:31;32.43;42.74
70336;SHT31;57756;47.408;18.940;2023-07-20T14:07:56;32.28;43.32
70336;SHT31;57756;47.408;18.940;2023-07-20T14:10:22;31.96;43.45
70336;SHT31;57756;47.408;18.940;2023-07-20T14:12:48;31.82;44.09
70336;SHT31;57756;47.408;18.940;2023-07-20T14:15:13;31.78;43.65
70336;SHT31;57756;47.408;18.940;2023-07-20T14:17:39;31.99;44.38
70336;SHT31;57756;47.408;18.940;2023-07-20T14:20:04;31.78;43.41
70336;SHT31;57756;47.408;18.940;2023-07-20T14:22:30;31.88;44.89
70336;SHT31;57756;47.408;18.940;2023-07-20T14:24:56;31.86;43.98
70336;SHT31;57756;47.408;18.940;2023-07-20T14:27:21;31.53;44.04
70336;SHT31;57756;47.408;18.940;2023-07-20T14:29:47;31.47;44.93
70336;SHT31;57756;47.408;18.940;2023-07-20T14:32:12;31.23;44.83
70336;SHT31;57756;47.408;18.940;2023-07-20T14:34:38;31.23;44.76
70336;SHT31;57756;47.408;18.940;2023-07-20T14:37:04;31.29;45.32
70336;SHT31;57756;47.408;18.940;2023-07-20T14:39:30;31.19;44.96
70336;SHT31;57756;47.408;18.940;2023-07-20T14:41:55;31.13;45.35
70336;SHT31;57756;47.408;18.940;2023-07-20T14:44:21;31.16;45.55
70336;SHT31;57756;47.408;18.940;2023-07-20T14:46:46;30.89;44.44
70336;SHT31;57756;47.408;18.940;2023-07-20T14:49:12;30.89;45.43
70336;SHT31;57756;47.408;18.940;2023-07-20T14:51:37;30.89;45.17
70336;SHT31;57756;47.408;18.940;2023-07-20T14:54:09;30.85;45.70
70336;SHT31;57756;47.408;18.940;2023-07-20T14:56:34;30.72;45.71
70336;SHT31;57756;47.408;18.940;2023-07-20T14:59:00;30.76;45.62
70336;SHT31;57756;47.408;18.940;2023-07-20T15:01:25;30.60;45.70
70336;SHT31;57756;47.408;18.940;2023-07-20T15:03:51;30.61;45.25
70336;SHT31;57756;47.408;18.940;2023-07-20T15:06:19;30.51;45.79
70336;SHT31;57756;47.408;18.940;2023-07-20T15:08:44;30.41;45.82
70336;SHT31;57756;47.408;18.940;2023-07-20T15:11:10;30.37;45.61
70336;SHT31;57756;47.408;18.940;2023-07-20T15:13:35;30.51;47.03
70336;SHT31;57756;47.408;18.940;2023-07-20T15:16:01;30.40;46.12
70336;SHT31;57756;47.408;18.940;2023-07-20T15:18:26;30.41;46.59
70336;SHT31;57756;47.408;18.940;2023-07-20T15:20:52;30.30;46.08
70336;SHT31;57756;47.408;18.940;2023-07-20T15:23:19;30.25;45.81
70336;SHT31;57756;47.408;18.940;2023-07-20T15:25:45;30.23;46.08
70336;SHT31;57756;47.408;18.940;2023-07-20T15:28:11;30.09;45.91
70336;SHT31;57756;47.408;18.940;2023-07-20T15:30:36;29.96;45.87